createdAt,value
2022-12-27T00:00:11.544Z,74.12
2022-12-27T00:03:05.906Z,74.08
2022-12-27T00:05:35.441Z,74.36
2022-12-27T00:08:04.597Z,74.03
2022-12-27T00:10:34.247Z,74.18
2022-12-27T00:13:03.902Z,74.20
2022-12-27T00:15:34.196Z,74.00
2022-12-27T00:18:04.723Z,73.87
2022-12-27T00:20:34.078Z,74.01
2022-12-27T00:23:03.435Z,74.32
2022-12-27T00:25:32.694Z,74.45
2022-12-27T00:28:01.797Z,74.21
2022-12-27T00:30:32.210Z,74.10
2022-12-27T00:33:01.572Z,74.43
2022-12-27T00:35:32.416Z,74.60
2022-12-27T00:38:01.434Z,74.29
2022-12-27T00:40:30.682Z,74.30
2022-12-27T00:42:59.791Z,74.31
2022-12-27T00:45:29.092Z,74.59
2022-12-27T00:47:58.277Z,74.45
2022-12-27T00:50:27.639Z,74.60
2022-12-27T00:52:58.336Z,74.59
2022-12-27T00:55:27.774Z,74.62
2022-12-27T00:57:57.960Z,74.45
2022-12-27T01:00:27.439Z,74.53
2022-12-27T01:02:56.408Z,74.81
2022-12-27T01:05:27.006Z,74.74
2022-12-27T01:07:57.820Z,74.79
2022-12-27T01:10:27.205Z,74.92
2022-12-27T01:12:56.315Z,74.74
2022-12-27T01:15:25.645Z,74.89
2022-12-27T01:17:54.682Z,74.73
2022-12-27T01:20:24.173Z,74.92
2022-12-27T01:22:55.595Z,74.87
2022-12-27T01:25:26.275Z,75.10
2022-12-27T01:27:55.801Z,75.23
2022-12-27T01:30:25.135Z,74.99
2022-12-27T01:32:54.291Z,75.17
2022-12-27T01:35:23.665Z,75.41
2022-12-27T01:37:53.446Z,75.32
2022-12-27T01:40:23.036Z,75.48
2022-12-27T01:42:52.397Z,75.38
2022-12-27T01:45:23.521Z,75.27
2022-12-27T01:47:58.055Z,75.26
2022-12-27T01:50:33.276Z,75.18
2022-12-27T01:53:08.147Z,75.14
2022-12-27T01:55:42.775Z,75.11
2022-12-27T01:58:18.818Z,75.09
2022-12-27T02:00:50.339Z,74.90
2022-12-27T02:03:25.088Z,74.88
2022-12-27T02:05:55.390Z,74.95
2022-12-27T02:08:38.196Z,74.92
2022-12-27T02:11:09.301Z,74.58
2022-12-27T02:13:47.332Z,74.78
2022-12-27T02:16:20.777Z,74.60
2022-12-27T02:18:49.973Z,74.88
2022-12-27T02:21:46.669Z,74.48
2022-12-27T02:24:39.371Z,74.67
2022-12-27T02:27:18.604Z,74.75
2022-12-27T02:30:03.270Z,74.58
2022-12-27T02:32:37.586Z,74.60
2022-12-27T02:35:14.523Z,74.79
2022-12-27T02:37:50.045Z,74.48
2022-12-27T02:40:41.034Z,74.11
2022-12-27T02:43:24.839Z,74.39
2022-12-27T02:46:21.630Z,74.04
2022-12-27T02:49:13.299Z,74.33
2022-12-27T02:52:16.452Z,74.16
2022-12-27T02:55:14.229Z,74.29
2022-12-27T02:57:48.868Z,74.05
2022-12-27T03:00:38.288Z,74.30
2022-12-27T03:03:24.935Z,74.06
2022-12-27T03:06:43.725Z,74.29
2022-12-27T03:10:12.525Z,74.06
2022-12-27T03:13:08.866Z,74.04
2022-12-27T03:15:59.812Z,74.64
2022-12-27T03:19:02.924Z,74.28
2022-12-27T03:21:55.086Z,74.14
2022-12-27T03:24:45.291Z,74.44
2022-12-27T03:27:19.088Z,74.27
2022-12-27T03:33:43.004Z,74.37
2022-12-27T03:36:37.209Z,74.30
2022-12-27T03:39:13.949Z,74.24
2022-12-27T03:42:07.230Z,74.47
2022-12-27T03:44:38.039Z,74.38
2022-12-27T03:47:14.748Z,74.36
2022-12-27T03:49:49.773Z,74.37
2022-12-27T03:52:26.336Z,74.15
2022-12-27T03:54:56.508Z,74.01
2022-12-27T03:57:28.079Z,74.04
2022-12-27T03:59:57.340Z,74.31
2022-12-27T04:02:27.023Z,74.25
2022-12-27T04:04:56.412Z,74.46
2022-12-27T04:07:27.103Z,74.54
2022-12-27T04:10:13.602Z,74.19
2022-12-27T04:13:00.674Z,74.19
2022-12-27T04:15:47.250Z,74.27
2022-12-27T04:18:34.188Z,74.27
2022-12-27T04:21:20.470Z,74.59
2022-12-27T04:24:08.528Z,74.29
2022-12-27T04:26:54.724Z,74.42
2022-12-27T04:29:41.324Z,74.46
2022-12-27T04:32:27.799Z,74.41
2022-12-27T04:34:57.259Z,74.20
2022-12-27T04:37:26.279Z,74.48
2022-12-27T04:40:10.971Z,74.66
2022-12-27T04:42:57.624Z,74.66
2022-12-27T04:45:44.413Z,74.72
2022-12-27T04:48:48.092Z,74.84
2022-12-27T04:51:35.005Z,74.70
2022-12-27T04:54:30.084Z,74.64
2022-12-27T04:57:00.921Z,74.69
2022-12-27T04:59:47.926Z,74.70
2022-12-27T05:02:19.673Z,74.73
2022-12-27T05:04:50.287Z,74.72
2022-12-27T05:07:37.099Z,74.84
2022-12-27T05:10:24.815Z,74.81
2022-12-27T05:13:12.803Z,75.11
2022-12-27T05:15:42.276Z,74.60
2022-12-27T05:18:11.587Z,74.58
2022-12-27T05:20:40.673Z,74.54
2022-12-27T05:23:28.380Z,74.32
2022-12-27T05:25:57.478Z,74.49
2022-12-27T05:28:28.228Z,74.58
2022-12-27T05:31:03.662Z,74.88
2022-12-27T05:33:33.826Z,74.95
2022-12-27T05:36:02.710Z,75.18
2022-12-27T05:38:32.205Z,75.15
2022-12-27T05:41:02.487Z,75.26
2022-12-27T05:43:33.704Z,75.57
2022-12-27T05:46:06.552Z,75.20
2022-12-27T05:48:36.301Z,75.07
2022-12-27T05:51:10.009Z,75.00
2022-12-27T05:53:39.812Z,75.00
2022-12-27T05:56:09.930Z,75.02
2022-12-27T05:58:41.763Z,75.10
2022-12-27T06:01:12.533Z,75.23
2022-12-27T06:03:42.156Z,75.03
2022-12-27T06:06:11.612Z,75.09
2022-12-27T06:08:41.291Z,74.74
2022-12-27T06:11:12.360Z,74.88
2022-12-27T06:13:44.827Z,74.91
2022-12-27T06:16:14.595Z,74.58
2022-12-27T06:18:44.145Z,74.66
2022-12-27T06:21:15.259Z,74.25
2022-12-27T06:23:45.871Z,74.56
2022-12-27T06:26:17.175Z,74.50
2022-12-27T06:28:49.614Z,74.40
2022-12-27T06:31:20.234Z,74.33
2022-12-27T06:33:51.284Z,74.27
2022-12-27T06:36:22.598Z,74.29
2022-12-27T06:38:52.410Z,74.27
2022-12-27T06:41:21.499Z,74.02
2022-12-27T06:43:57.095Z,74.13
2022-12-27T06:46:26.791Z,74.29
2022-12-27T06:48:55.883Z,74.10
2022-12-27T06:51:24.915Z,74.48
2022-12-27T06:53:54.251Z,74.25
2022-12-27T06:56:24.821Z,74.21
2022-12-27T06:58:55.630Z,74.08
2022-12-27T07:01:27.281Z,73.93
2022-12-27T07:03:58.859Z,73.67
2022-12-27T07:06:29.892Z,73.85
2022-12-27T07:09:01.083Z,73.75
2022-12-27T07:11:32.928Z,74.07
2022-12-27T07:14:04.658Z,73.98
2022-12-27T07:16:33.810Z,73.58
2022-12-27T07:19:03.074Z,73.37
2022-12-27T07:21:32.263Z,73.34
2022-12-27T07:24:01.548Z,73.17
2022-12-27T07:26:32.347Z,73.17
2022-12-27T07:29:03.433Z,73.37
2022-12-27T07:31:34.206Z,73.75
2022-12-27T07:34:04.861Z,73.91
2022-12-27T07:36:36.515Z,74.27
2022-12-27T07:39:06.581Z,74.09
2022-12-27T07:41:36.231Z,73.63
2022-12-27T07:44:06.903Z,73.73
2022-12-27T07:46:36.329Z,73.69
2022-12-27T07:49:05.707Z,73.74
2022-12-27T07:51:34.947Z,73.85
2022-12-27T07:54:04.425Z,73.48
2022-12-27T07:56:34.120Z,73.20
2022-12-27T07:59:04.070Z,73.28
2022-12-27T08:01:56.788Z,73.40
2022-12-27T08:04:26.349Z,73.21
2022-12-27T08:06:57.851Z,73.65
2022-12-27T08:09:30.688Z,73.43
2022-12-27T08:11:59.805Z,73.32
2022-12-27T08:14:29.324Z,73.20
2022-12-27T08:17:04.902Z,73.18
2022-12-27T08:19:34.599Z,73.38
2022-12-27T08:22:05.312Z,73.03
2022-12-27T08:24:34.865Z,72.86
2022-12-27T08:27:04.013Z,73.04
2022-12-27T08:29:33.311Z,72.95
2022-12-27T08:32:04.071Z,73.02
2022-12-27T08:34:33.473Z,73.17
2022-12-27T08:37:02.476Z,73.05
2022-12-27T08:39:32.093Z,73.37
2022-12-27T08:42:01.393Z,73.28
2022-12-27T08:44:30.801Z,73.03
2022-12-27T08:46:59.923Z,72.90
2022-12-27T08:49:30.604Z,72.93
2022-12-27T08:51:59.582Z,72.73
2022-12-27T08:54:28.946Z,72.93
2022-12-27T08:56:57.913Z,72.89
2022-12-27T08:59:27.674Z,72.74
2022-12-27T09:01:57.427Z,72.77
2022-12-27T09:04:26.758Z,72.76
2022-12-27T09:06:57.253Z,72.86
2022-12-27T09:09:26.644Z,72.88
2022-12-27T09:11:57.240Z,72.44
2022-12-27T09:14:26.723Z,72.65
2022-12-27T09:16:55.753Z,72.34
2022-12-27T09:19:25.073Z,72.47
2022-12-27T09:21:54.188Z,72.11
2022-12-27T09:24:25.318Z,72.14
2022-12-27T09:26:54.424Z,72.10
2022-12-27T09:29:23.750Z,72.31
2022-12-27T09:31:52.967Z,72.09
2022-12-27T09:34:22.486Z,72.04
2022-12-27T09:36:51.621Z,71.90
2022-12-27T09:39:20.897Z,72.26
2022-12-27T09:44:58.165Z,71.76
2022-12-27T09:47:32.970Z,72.10
2022-12-27T09:50:07.560Z,71.93
2022-12-27T09:52:42.701Z,72.18
2022-12-27T09:55:19.140Z,72.30
2022-12-27T09:57:53.417Z,72.19
2022-12-27T10:00:30.208Z,72.07
2022-12-27T10:03:07.334Z,72.14
2022-12-27T10:05:39.961Z,72.07
2022-12-27T10:08:24.582Z,71.98
2022-12-27T10:11:03.436Z,72.18
2022-12-27T10:13:45.805Z,72.05
2022-12-27T10:16:27.368Z,72.02
2022-12-27T10:19:22.318Z,72.12
2022-12-27T10:22:03.281Z,71.88
2022-12-27T10:24:39.379Z,71.91
2022-12-27T10:27:16.167Z,71.82
2022-12-27T10:29:47.614Z,72.06
2022-12-27T10:32:18.158Z,71.58
2022-12-27T10:34:49.071Z,71.63
2022-12-27T10:37:18.668Z,71.61
2022-12-27T10:39:49.189Z,71.48
2022-12-27T10:42:35.491Z,71.36
2022-12-27T10:45:33.603Z,71.75
2022-12-27T10:48:21.538Z,71.59
2022-12-27T10:50:55.760Z,71.66
2022-12-27T10:53:37.982Z,71.74
2022-12-27T10:56:26.145Z,71.82
2022-12-27T10:59:06.026Z,71.73
2022-12-27T11:01:36.809Z,72.34
2022-12-27T11:04:21.104Z,72.42
2022-12-27T11:06:52.865Z,72.36
2022-12-27T11:09:34.187Z,72.70
2022-12-27T11:12:20.739Z,72.44
2022-12-27T11:14:57.355Z,72.84
2022-12-27T11:17:36.813Z,72.76
2022-12-27T11:20:20.245Z,72.79
2022-12-27T11:22:54.843Z,72.74
2022-12-27T11:25:26.738Z,72.81
2022-12-27T11:28:01.302Z,72.56
2022-12-27T11:30:33.798Z,72.40
2022-12-27T11:33:07.974Z,72.77
2022-12-27T11:35:49.225Z,72.76
2022-12-27T11:38:26.169Z,72.96
2022-12-27T11:41:02.586Z,73.15
2022-12-27T11:43:38.655Z,73.09
2022-12-27T11:46:25.639Z,72.95
2022-12-27T11:48:58.506Z,73.33
2022-12-27T11:51:52.017Z,73.21
2022-12-27T11:54:41.542Z,73.15
2022-12-27T11:57:21.275Z,73.51
2022-12-27T12:00:04.859Z,73.24
2022-12-27T12:03:02.733Z,73.28
2022-12-27T12:05:56.704Z,73.50
2022-12-27T12:08:56.410Z,73.38
2022-12-27T12:11:45.695Z,73.24
2022-12-27T12:14:48.796Z,73.66
2022-12-27T12:17:43.995Z,73.61
2022-12-27T12:20:44.435Z,73.35
2022-12-27T12:23:31.365Z,73.31
2022-12-27T12:26:21.374Z,73.26
2022-12-27T12:29:19.225Z,73.15
2022-12-27T12:32:13.086Z,73.03
2022-12-27T12:34:58.265Z,73.09
2022-12-27T12:37:46.945Z,73.00
2022-12-27T12:40:32.881Z,72.85
2022-12-27T12:43:18.194Z,72.89
2022-12-27T12:46:09.934Z,73.08
2022-12-27T12:49:07.155Z,72.86
2022-12-27T12:51:51.485Z,73.08
2022-12-27T12:54:49.638Z,72.87
2022-12-27T12:57:33.666Z,72.89
2022-12-27T13:00:21.353Z,73.27
2022-12-27T13:03:22.837Z,73.10
2022-12-27T13:05:59.119Z,73.13
2022-12-27T13:08:35.451Z,73.17
2022-12-27T13:11:26.206Z,73.36
2022-12-27T13:14:22.232Z,73.27
2022-12-27T13:16:59.749Z,73.04
2022-12-27T13:19:55.807Z,73.01
2022-12-27T13:22:38.879Z,73.18
2022-12-27T13:25:20.657Z,73.19
2022-12-27T13:27:58.333Z,73.35
2022-12-27T13:30:35.330Z,73.37
2022-12-27T13:33:16.985Z,73.29
2022-12-27T13:36:11.189Z,73.39
2022-12-27T13:38:59.166Z,73.52
2022-12-27T13:41:38.533Z,73.55
2022-12-27T13:44:36.498Z,73.74
2022-12-27T13:47:35.515Z,73.86
2022-12-27T13:50:30.786Z,73.70
2022-12-27T13:53:21.519Z,73.88
2022-12-27T13:55:57.174Z,73.98
2022-12-27T13:58:59.885Z,73.91
2022-12-27T14:01:55.379Z,74.00
2022-12-27T14:04:44.806Z,74.38
2022-12-27T14:07:31.915Z,74.43
2022-12-27T14:10:14.535Z,74.41
2022-12-27T14:13:00.410Z,74.45
2022-12-27T14:15:51.181Z,74.66
2022-12-27T14:18:42.389Z,74.69
2022-12-27T14:21:36.207Z,74.86
2022-12-27T14:24:20.382Z,75.28
2022-12-27T14:27:43.239Z,75.34
2022-12-27T14:30:33.132Z,75.95
2022-12-27T14:33:38.757Z,75.79
2022-12-27T14:36:47.431Z,75.97
2022-12-27T14:39:47.078Z,75.88
2022-12-27T14:42:24.594Z,75.91
2022-12-27T14:45:26.519Z,75.88
2022-12-27T14:48:25.272Z,75.78
2022-12-27T14:51:59.773Z,75.62
2022-12-27T14:54:52.055Z,75.89
2022-12-27T14:57:34.087Z,76.12
2022-12-27T15:00:13.343Z,75.63
2022-12-27T15:03:06.550Z,76.07
2022-12-27T15:05:50.602Z,75.92
2022-12-27T15:08:44.229Z,75.82
2022-12-27T15:11:43.292Z,76.02
2022-12-27T15:14:29.671Z,75.86
2022-12-27T15:17:11.405Z,76.02
2022-12-27T15:20:04.116Z,75.84
2022-12-27T15:22:48.599Z,75.86
2022-12-27T15:25:28.676Z,75.51
2022-12-27T15:28:09.571Z,75.77
2022-12-27T15:30:47.267Z,75.80
2022-12-27T15:33:29.867Z,75.80
2022-12-27T15:36:05.257Z,75.81
2022-12-27T15:38:52.859Z,75.81
2022-12-27T15:41:44.271Z,75.70
2022-12-27T15:44:47.686Z,75.76
2022-12-27T15:47:38.092Z,75.49
2022-12-27T15:50:35.703Z,76.02
2022-12-27T15:53:30.448Z,75.80
2022-12-27T15:56:25.529Z,75.83
2022-12-27T15:59:45.389Z,76.11
2022-12-27T16:02:39.237Z,76.30
2022-12-27T16:05:53.384Z,76.25
2022-12-27T16:08:43.660Z,76.38
2022-12-27T16:11:14.032Z,75.96
2022-12-27T16:13:49.939Z,76.50
2022-12-27T16:16:56.108Z,76.70
2022-12-27T16:20:02.196Z,76.75
2022-12-27T16:22:38.009Z,76.81
2022-12-27T16:25:32.237Z,77.15
2022-12-27T16:28:08.307Z,77.49
2022-12-27T16:30:47.722Z,78.04
2022-12-27T16:33:37.763Z,78.65
2022-12-27T16:36:20.864Z,78.76
2022-12-27T16:38:59.318Z,78.80
2022-12-27T16:41:59.337Z,78.43
2022-12-27T16:44:49.409Z,78.64
2022-12-27T16:47:47.743Z,78.38
2022-12-27T16:50:41.856Z,78.15
2022-12-27T16:53:31.935Z,78.09
2022-12-27T16:56:18.379Z,77.96
2022-12-27T16:58:48.346Z,77.89
2022-12-27T17:01:57.053Z,78.05
2022-12-27T17:05:03.335Z,78.06
2022-12-27T17:07:52.636Z,77.93
2022-12-27T17:11:03.982Z,77.93
2022-12-27T17:13:45.729Z,77.74
2022-12-27T17:16:21.893Z,78.14
2022-12-27T17:18:57.870Z,78.15
2022-12-27T17:21:31.251Z,78.31
2022-12-27T17:24:06.180Z,78.74
2022-12-27T17:27:05.870Z,78.48
2022-12-27T17:30:03.540Z,78.74
2022-12-27T17:33:22.860Z,78.69
2022-12-27T17:36:19.163Z,78.78
2022-12-27T17:38:58.749Z,79.18
2022-12-27T17:41:58.104Z,79.24
2022-12-27T17:44:40.110Z,79.14
2022-12-27T17:47:27.036Z,79.07
2022-12-27T17:50:01.390Z,79.32
2022-12-27T17:52:48.427Z,79.22
2022-12-27T17:55:40.511Z,79.36
2022-12-27T17:58:11.971Z,79.41
2022-12-27T18:00:53.344Z,79.40
2022-12-27T18:03:26.462Z,79.04
2022-12-27T18:05:56.069Z,79.21
2022-12-27T18:08:29.757Z,79.43
2022-12-27T18:11:02.110Z,79.42
2022-12-27T18:13:34.916Z,79.76
2022-12-27T18:16:15.576Z,79.71
2022-12-27T18:18:49.172Z,79.68
2022-12-27T18:21:31.847Z,79.49
2022-12-27T18:24:02.210Z,79.35
2022-12-27T18:26:45.285Z,79.58
2022-12-27T18:29:14.415Z,79.42
2022-12-27T18:31:52.443Z,79.47
2022-12-27T18:34:29.228Z,79.39
2022-12-27T18:37:03.631Z,79.19
2022-12-27T18:39:35.977Z,78.90
2022-12-27T18:42:08.085Z,78.96
2022-12-27T18:44:45.466Z,79.11
2022-12-27T18:47:21.238Z,78.83
2022-12-27T18:50:00.144Z,78.68
2022-12-27T18:52:35.046Z,78.38
2022-12-27T18:55:17.507Z,78.19
2022-12-27T18:57:49.479Z,78.09
2022-12-27T19:00:25.220Z,78.24
2022-12-27T19:03:12.673Z,78.38
2022-12-27T19:06:03.504Z,78.28
2022-12-27T19:08:39.547Z,78.18
2022-12-27T19:11:11.196Z,78.24
2022-12-27T19:13:48.098Z,78.15
2022-12-27T19:16:23.933Z,78.19
2022-12-27T19:18:56.121Z,78.06
2022-12-27T19:21:33.840Z,78.04
2022-12-27T19:24:21.509Z,78.37
2022-12-27T19:26:54.289Z,78.02
2022-12-27T19:29:26.031Z,77.91
2022-12-27T19:31:59.316Z,78.09
2022-12-27T19:34:34.166Z,78.06
2022-12-27T19:37:04.715Z,77.71
2022-12-27T19:39:38.102Z,77.86
2022-12-27T19:42:12.744Z,77.81
2022-12-27T19:44:42.744Z,77.81
2022-12-27T19:47:13.636Z,77.37
2022-12-27T19:49:44.777Z,77.43
2022-12-27T19:52:19.751Z,77.21
2022-12-27T19:54:53.319Z,76.94
2022-12-27T19:57:23.101Z,76.99
2022-12-27T19:59:53.452Z,76.83
2022-12-27T20:02:23.465Z,76.94
2022-12-27T20:04:55.134Z,77.04
2022-12-27T20:07:27.024Z,76.82
2022-12-27T20:09:56.702Z,77.13
2022-12-27T20:12:27.966Z,77.09
2022-12-27T20:14:59.182Z,77.63
2022-12-27T20:17:32.437Z,77.74
2022-12-27T20:20:02.077Z,77.85
2022-12-27T20:22:32.487Z,77.63
2022-12-27T20:25:02.680Z,77.77
2022-12-27T20:27:34.294Z,77.93
2022-12-27T20:30:05.252Z,77.87
2022-12-27T20:32:36.872Z,77.94
2022-12-27T20:35:07.843Z,77.78
2022-12-27T20:37:42.160Z,77.79
2022-12-27T20:40:12.344Z,77.71
2022-12-27T20:42:42.534Z,77.52
2022-12-27T20:45:14.719Z,77.62
2022-12-27T20:47:46.151Z,77.74
2022-12-27T20:50:15.615Z,77.74
2022-12-27T20:52:47.210Z,77.62
2022-12-27T20:55:20.404Z,77.47
2022-12-27T20:57:50.294Z,77.41
2022-12-27T21:00:22.517Z,77.37
2022-12-27T21:02:53.712Z,77.08
2022-12-27T21:05:23.739Z,77.32
2022-12-27T21:07:55.400Z,77.01
2022-12-27T21:10:25.272Z,77.31
2022-12-27T21:12:54.655Z,77.14
2022-12-27T21:15:24.133Z,77.18
2022-12-27T21:17:54.463Z,77.06
2022-12-27T21:20:23.831Z,77.06
2022-12-27T21:22:54.517Z,76.88
2022-12-27T21:25:23.946Z,76.95
2022-12-27T21:27:53.191Z,76.69
2022-12-27T21:30:22.615Z,76.57
2022-12-27T21:32:51.599Z,76.41
2022-12-27T21:35:21.954Z,76.33
2022-12-27T21:37:51.176Z,76.34
2022-12-27T21:40:22.524Z,76.58
2022-12-27T21:42:52.489Z,76.49
2022-12-27T21:45:22.741Z,76.27
2022-12-27T21:47:53.402Z,76.57
2022-12-27T21:50:23.197Z,76.70
2022-12-27T21:52:52.708Z,76.48
2022-12-27T21:55:23.407Z,76.53
2022-12-27T21:57:52.555Z,76.73
2022-12-27T22:00:21.787Z,76.69
2022-12-27T22:02:51.034Z,76.60
2022-12-27T22:05:20.802Z,76.41
2022-12-27T22:07:50.103Z,76.81
2022-12-27T22:10:19.928Z,76.88
2022-12-27T22:12:50.437Z,76.76
2022-12-27T22:15:19.795Z,76.77
2022-12-27T22:17:48.833Z,76.86
2022-12-27T22:20:18.333Z,77.10
2022-12-27T22:22:47.573Z,76.70
2022-12-27T22:25:16.941Z,77.23
2022-12-27T22:27:46.214Z,77.40
2022-12-27T22:30:17.111Z,77.05
2022-12-27T22:32:46.429Z,77.26
2022-12-27T22:35:15.889Z,77.23
2022-12-27T22:37:45.267Z,77.61
2022-12-27T22:40:38.023Z,77.38
2022-12-27T22:43:04.162Z,77.35
2022-12-27T22:45:35.152Z,77.69
2022-12-27T22:48:07.382Z,77.31
2022-12-27T22:50:37.947Z,77.27
2022-12-27T22:53:07.380Z,77.53
2022-12-27T22:55:41.056Z,77.45
2022-12-27T22:58:10.324Z,77.27
2022-12-27T23:00:41.312Z,77.10
2022-12-27T23:03:10.515Z,77.48
2022-12-27T23:05:39.770Z,77.25
2022-12-27T23:08:08.844Z,77.05
2022-12-27T23:10:38.168Z,77.05
2022-12-27T23:13:07.246Z,77.28
2022-12-27T23:15:36.684Z,77.42
2022-12-27T23:18:07.313Z,77.59
2022-12-27T23:20:37.080Z,77.69
2022-12-27T23:23:06.216Z,77.52
2022-12-27T23:25:37.417Z,77.54
2022-12-27T23:28:06.783Z,77.46
2022-12-27T23:30:36.103Z,77.71
2022-12-27T23:33:06.697Z,77.54
2022-12-27T23:35:36.187Z,77.49
2022-12-27T23:38:05.342Z,77.52
2022-12-27T23:40:34.611Z,77.48
2022-12-27T23:43:33.296Z,77.28
2022-12-27T23:45:53.883Z,77.28
2022-12-27T23:48:24.364Z,77.49
2022-12-27T23:50:53.735Z,77.58
2022-12-27T23:53:22.718Z,77.32
2022-12-27T23:55:58.148Z,77.36
2022-12-27T23:58:27.469Z,76.99
